logo
Rechercher aéroport 
image banner adimage banner adimage banner ad
image banner ad

YMLGT - Melangata

Situé à , Australia

ICAO - , IATA -

Données fournies par Airmate  

Information générale

Coordonnées: S27°47'55" E116°52'59"
Élévation : 1438 feet MSL.
Variation magnétique : 0° East
Voir autres Aéroports à Western Australia

Données opérationnelles

Special qualification required
Heure actuelle UTC:
Heure actuelle locale:
Météo à : - ( 0 km )
METAR: MDSD 152033Z 13006KT 8000 -RA FEW019 SCT020 28/27 Q1014 CB/W/NW
Voir NOTAMs / SUP AIP / TFR affectant cet aéroport [VIEW]
Fréquences de communication: [VIEW]

Pistes:

Identifiant RWYQFULongueur (ft)Largeur (ft)SurfaceLDA (ft)
19189°261081DIRT
01261081DIRT

Coordonnées de l'aéroport

Adresse: Australia

Vue satellite de YMLGT